sensor_id;sensor_type;location;lat;lon;timestamp;P1;durP1;ratioP1;P2;durP2;ratioP2
18623;SDS011;9441;51.420;7.036;2023-04-01T00:00:28;8.77;;;1.80;;
18623;SDS011;9441;51.420;7.036;2023-04-01T00:01:30;9.23;;;1.77;;
18623;SDS011;9441;51.420;7.036;2023-04-01T00:02:33;4.27;;;1.40;;
18623;SDS011;9441;51.420;7.036;2023-04-01T00:03:34;8.87;;;1.47;;
18623;SDS011;9441;51.420;7.036;2023-04-01T00:04:37;3.93;;;1.43;;
18623;SDS011;9441;51.420;7.036;2023-04-01T00:05:38;5.27;;;1.60;;
18623;SDS011;9441;51.420;7.036;2023-04-01T00:06:41;3.60;;;1.40;;
18623;SDS011;9441;51.420;7.036;2023-04-01T00:07:42;5.60;;;1.40;;
18623;SDS011;9441;51.420;7.036;2023-04-01T00:08:46;4.40;;;1.27;;
18623;SDS011;9441;51.420;7.036;2023-04-01T00:09:47;6.93;;;1.33;;
18623;SDS011;9441;51.420;7.036;2023-04-01T00:10:49;4.63;;;1.40;;
18623;SDS011;9441;51.420;7.036;2023-04-01T00:11:51;6.20;;;1.40;;
18623;SDS011;9441;51.420;7.036;2023-04-01T00:12:53;4.50;;;1.30;;
18623;SDS011;9441;51.420;7.036;2023-04-01T00:13:55;6.83;;;1.80;;
18623;SDS011;9441;51.420;7.036;2023-04-01T00:14:57;5.50;;;1.40;;
18623;SDS011;9441;51.420;7.036;2023-04-01T00:15:58;6.53;;;1.30;;
18623;SDS011;9441;51.420;7.036;2023-04-01T00:17:03;5.10;;;1.37;;
18623;SDS011;9441;51.420;7.036;2023-04-01T00:18:04;4.40;;;1.30;;
18623;SDS011;9441;51.420;7.036;2023-04-01T00:19:06;7.20;;;1.10;;
18623;SDS011;9441;51.420;7.036;2023-04-01T00:20:08;4.80;;;1.33;;
18623;SDS011;9441;51.420;7.036;2023-04-01T00:21:10;4.93;;;1.40;;
18623;SDS011;9441;51.420;7.036;2023-04-01T00:22:12;5.77;;;1.20;;
18623;SDS011;9441;51.420;7.036;2023-04-01T00:23:15;6.23;;;1.40;;
18623;SDS011;9441;51.420;7.036;2023-04-01T00:24:16;4.43;;;1.10;;
18623;SDS011;9441;51.420;7.036;2023-04-01T00:25:19;5.80;;;1.10;;
18623;SDS011;9441;51.420;7.036;2023-04-01T00:26:20;4.93;;;1.40;;
18623;SDS011;9441;51.420;7.036;2023-04-01T00:27:23;3.53;;;1.23;;
18623;SDS011;9441;51.420;7.036;2023-04-01T00:28:25;5.03;;;1.17;;
18623;SDS011;9441;51.420;7.036;2023-04-01T00:29:27;3.80;;;1.03;;
18623;SDS011;9441;51.420;7.036;2023-04-01T00:30:30;4.17;;;0.90;;
18623;SDS011;9441;51.420;7.036;2023-04-01T00:31:33;6.90;;;1.37;;
18623;SDS011;9441;51.420;7.036;2023-04-01T00:32:36;5.40;;;1.40;;
18623;SDS011;9441;51.420;7.036;2023-04-01T00:33:38;4.33;;;1.10;;
18623;SDS011;9441;51.420;7.036;2023-04-01T00:34:41;3.20;;;1.27;;
18623;SDS011;9441;51.420;7.036;2023-04-01T00:35:44;6.10;;;1.43;;
18623;SDS011;9441;51.420;7.036;2023-04-01T00:36:46;4.20;;;1.20;;
18623;SDS011;9441;51.420;7.036;2023-04-01T00:37:48;4.20;;;1.40;;
18623;SDS011;9441;51.420;7.036;2023-04-01T00:38:49;3.77;;;1.33;;
18623;SDS011;9441;51.420;7.036;2023-04-01T00:39:52;5.23;;;1.30;;
18623;SDS011;9441;51.420;7.036;2023-04-01T00:40:56;5.70;;;1.10;;
18623;SDS011;9441;51.420;7.036;2023-04-01T00:42:00;1.80;;;1.00;;
18623;SDS011;9441;51.420;7.036;2023-04-01T00:43:01;5.17;;;1.40;;
18623;SDS011;9441;51.420;7.036;2023-04-01T00:44:16;4.43;;;1.00;;
18623;SDS011;9441;51.420;7.036;2023-04-01T00:45:31;2.70;;;1.03;;
18623;SDS011;9441;51.420;7.036;2023-04-01T00:46:34;2.77;;;1.40;;
18623;SDS011;9441;51.420;7.036;2023-04-01T00:47:38;3.17;;;1.40;;
18623;SDS011;9441;51.420;7.036;2023-04-01T00:48:41;7.03;;;1.20;;
18623;SDS011;9441;51.420;7.036;2023-04-01T00:49:45;3.73;;;1.20;;
18623;SDS011;9441;51.420;7.036;2023-04-01T00:50:48;5.07;;;1.30;;
18623;SDS011;9441;51.420;7.036;2023-04-01T00:51:51;5.40;;;1.20;;
18623;SDS011;9441;51.420;7.036;2023-04-01T00:52:54;3.20;;;1.30;;
18623;SDS011;9441;51.420;7.036;2023-04-01T00:53:57;5.30;;;1.10;;
18623;SDS011;9441;51.420;7.036;2023-04-01T00:55:01;3.63;;;1.10;;
18623;SDS011;9441;51.420;7.036;2023-04-01T00:56:07;4.30;;;1.13;;
18623;SDS011;9441;51.420;7.036;2023-04-01T00:57:12;6.03;;;1.23;;
18623;SDS011;9441;51.420;7.036;2023-04-01T00:58:15;2.73;;;1.10;;
18623;SDS011;9441;51.420;7.036;2023-04-01T00:59:20;3.17;;;1.00;;
18623;SDS011;9441;51.420;7.036;2023-04-01T01:00:23;4.97;;;1.10;;
18623;SDS011;9441;51.420;7.036;2023-04-01T01:01:26;5.30;;;1.30;;
18623;SDS011;9441;51.420;7.036;2023-04-01T01:02:29;3.27;;;1.03;;
18623;SDS011;9441;51.420;7.036;2023-04-01T01:03:34;4.13;;;1.20;;
18623;SDS011;9441;51.420;7.036;2023-04-01T01:04:36;5.90;;;1.27;;
18623;SDS011;9441;51.420;7.036;2023-04-01T01:05:44;4.20;;;1.27;;
18623;SDS011;9441;51.420;7.036;2023-04-01T01:06:50;4.47;;;1.50;;
18623;SDS011;9441;51.420;7.036;2023-04-01T01:07:58;5.33;;;1.20;;
18623;SDS011;9441;51.420;7.036;2023-04-01T01:09:13;1.40;;;1.17;;
18623;SDS011;9441;51.420;7.036;2023-04-01T01:10:18;5.87;;;1.03;;
18623;SDS011;9441;51.420;7.036;2023-04-01T01:11:22;5.53;;;1.00;;
18623;SDS011;9441;51.420;7.036;2023-04-01T01:12:25;3.90;;;1.10;;
18623;SDS011;9441;51.420;7.036;2023-04-01T01:13:33;3.97;;;1.07;;
18623;SDS011;9441;51.420;7.036;2023-04-01T01:14:40;5.07;;;1.30;;
18623;SDS011;9441;51.420;7.036;2023-04-01T01:15:47;4.13;;;1.33;;
18623;SDS011;9441;51.420;7.036;2023-04-01T01:16:51;5.83;;;1.97;;
18623;SDS011;9441;51.420;7.036;2023-04-01T01:17:57;2.20;;;1.10;;
18623;SDS011;9441;51.420;7.036;2023-04-01T01:19:03;2.10;;;1.70;;
18623;SDS011;9441;51.420;7.036;2023-04-01T01:20:25;4.73;;;1.00;;
18623;SDS011;9441;51.420;7.036;2023-04-01T01:21:35;4.50;;;1.03;;
18623;SDS011;9441;51.420;7.036;2023-04-01T01:22:50;6.53;;;1.23;;
18623;SDS011;9441;51.420;7.036;2023-04-01T01:24:05;3.47;;;1.23;;
18623;SDS011;9441;51.420;7.036;2023-04-01T01:25:12;3.37;;;1.00;;
18623;SDS011;9441;51.420;7.036;2023-04-01T01:26:23;3.53;;;1.07;;
18623;SDS011;9441;51.420;7.036;2023-04-01T01:27:32;6.03;;;1.30;;
18623;SDS011;9441;51.420;7.036;2023-04-01T01:28:36;1.73;;;0.90;;
18623;SDS011;9441;51.420;7.036;2023-04-01T01:29:52;2.07;;;1.10;;
18623;SDS011;9441;51.420;7.036;2023-04-01T01:30:57;2.87;;;1.13;;
18623;SDS011;9441;51.420;7.036;2023-04-01T01:32:03;2.17;;;1.10;;
18623;SDS011;9441;51.420;7.036;2023-04-01T01:33:13;5.90;;;1.20;;
18623;SDS011;9441;51.420;7.036;2023-04-01T01:34:18;3.30;;;0.87;;
18623;SDS011;9441;51.420;7.036;2023-04-01T01:35:23;3.17;;;1.10;;
18623;SDS011;9441;51.420;7.036;2023-04-01T01:36:30;1.57;;;1.00;;
18623;SDS011;9441;51.420;7.036;2023-04-01T01:37:34;4.00;;;1.17;;
18623;SDS011;9441;51.420;7.036;2023-04-01T01:38:37;2.67;;;1.00;;
18623;SDS011;9441;51.420;7.036;2023-04-01T01:39:40;2.10;;;0.97;;
18623;SDS011;9441;51.420;7.036;2023-04-01T01:40:44;4.47;;;1.10;;
18623;SDS011;9441;51.420;7.036;2023-04-01T01:41:47;4.10;;;1.03;;
18623;SDS011;9441;51.420;7.036;2023-04-01T01:42:51;5.23;;;1.07;;
18623;SDS011;9441;51.420;7.036;2023-04-01T01:43:54;1.00;;;0.70;;
18623;SDS011;9441;51.420;7.036;2023-04-01T01:44:58;2.00;;;0.93;;
18623;SDS011;9441;51.420;7.036;2023-04-01T01:46:01;2.70;;;1.07;;
18623;SDS011;9441;51.420;7.036;2023-04-01T01:47:04;1.93;;;1.30;;
18623;SDS011;9441;51.420;7.036;2023-04-01T01:48:06;2.10;;;0.93;;
18623;SDS011;9441;51.420;7.036;2023-04-01T01:49:10;2.93;;;1.10;;
18623;SDS011;9441;51.420;7.036;2023-04-01T01:50:12;2.70;;;1.20;;
18623;SDS011;9441;51.420;7.036;2023-04-01T01:51:17;4.07;;;0.90;;
18623;SDS011;9441;51.420;7.036;2023-04-01T01:52:19;4.90;;;1.13;;
18623;SDS011;9441;51.420;7.036;2023-04-01T01:53:21;3.37;;;1.10;;
18623;SDS011;9441;51.420;7.036;2023-04-01T01:54:23;1.17;;;0.93;;
18623;SDS011;9441;51.420;7.036;2023-04-01T01:55:26;3.13;;;1.10;;
18623;SDS011;9441;51.420;7.036;2023-04-01T01:56:29;1.53;;;1.13;;
18623;SDS011;9441;51.420;7.036;2023-04-01T01:57:34;4.37;;;1.13;;
18623;SDS011;9441;51.420;7.036;2023-04-01T01:58:38;2.10;;;0.80;;
18623;SDS011;9441;51.420;7.036;2023-04-01T01:59:44;2.83;;;1.00;;
18623;SDS011;9441;51.420;7.036;2023-04-01T02:00:54;3.10;;;1.00;;
18623;SDS011;9441;51.420;7.036;2023-04-01T02:01:57;3.13;;;1.03;;
18623;SDS011;9441;51.420;7.036;2023-04-01T02:02:59;3.87;;;1.20;;
18623;SDS011;9441;51.420;7.036;2023-04-01T02:04:02;2.30;;;0.97;;
18623;SDS011;9441;51.420;7.036;2023-04-01T02:05:05;2.77;;;0.83;;
18623;SDS011;9441;51.420;7.036;2023-04-01T02:06:07;2.17;;;1.07;;
18623;SDS011;9441;51.420;7.036;2023-04-01T02:07:13;3.37;;;1.10;;
18623;SDS011;9441;51.420;7.036;2023-04-01T02:08:18;3.73;;;1.20;;
18623;SDS011;9441;51.420;7.036;2023-04-01T02:09:22;5.20;;;1.03;;
18623;SDS011;9441;51.420;7.036;2023-04-01T02:10:24;2.23;;;0.97;;
18623;SDS011;9441;51.420;7.036;2023-04-01T02:11:27;4.70;;;1.20;;
18623;SDS011;9441;51.420;7.036;2023-04-01T02:12:30;3.30;;;1.40;;
18623;SDS011;9441;51.420;7.036;2023-04-01T02:13:34;5.00;;;1.10;;
18623;SDS011;9441;51.420;7.036;2023-04-01T02:14:39;3.07;;;1.20;;
18623;SDS011;9441;51.420;7.036;2023-04-01T02:15:44;1.37;;;0.90;;
18623;SDS011;9441;51.420;7.036;2023-04-01T02:16:49;2.90;;;1.00;;
18623;SDS011;9441;51.420;7.036;2023-04-01T02:17:53;5.83;;;1.13;;
18623;SDS011;9441;51.420;7.036;2023-04-01T02:18:57;5.33;;;1.20;;
18623;SDS011;9441;51.420;7.036;2023-04-01T02:20:01;2.63;;;1.07;;
18623;SDS011;9441;51.420;7.036;2023-04-01T02:21:04;3.00;;;1.10;;
18623;SDS011;9441;51.420;7.036;2023-04-01T02:22:08;1.80;;;1.07;;
18623;SDS011;9441;51.420;7.036;2023-04-01T02:23:12;3.10;;;1.10;;
18623;SDS011;9441;51.420;7.036;2023-04-01T02:24:14;6.07;;;1.33;;
18623;SDS011;9441;51.420;7.036;2023-04-01T02:25:17;3.10;;;1.10;;
18623;SDS011;9441;51.420;7.036;2023-04-01T02:26:20;3.17;;;1.30;;
18623;SDS011;9441;51.420;7.036;2023-04-01T02:27:22;5.40;;;1.20;;
18623;SDS011;9441;51.420;7.036;2023-04-01T02:28:25;2.97;;;0.90;;
18623;SDS011;9441;51.420;7.036;2023-04-01T02:29:28;2.77;;;1.10;;
18623;SDS011;9441;51.420;7.036;2023-04-01T02:30:30;4.27;;;1.00;;
18623;SDS011;9441;51.420;7.036;2023-04-01T02:31:32;2.60;;;1.03;;
18623;SDS011;9441;51.420;7.036;2023-04-01T02:32:35;4.67;;;1.03;;
18623;SDS011;9441;51.420;7.036;2023-04-01T02:33:38;5.07;;;1.27;;
18623;SDS011;9441;51.420;7.036;2023-04-01T02:34:41;2.40;;;1.13;;
18623;SDS011;9441;51.420;7.036;2023-04-01T02:35:43;7.13;;;1.37;;
18623;SDS011;9441;51.420;7.036;2023-04-01T02:36:45;2.83;;;1.10;;
18623;SDS011;9441;51.420;7.036;2023-04-01T02:37:48;2.40;;;1.10;;
18623;SDS011;9441;51.420;7.036;2023-04-01T02:39:00;2.93;;;1.20;;
18623;SDS011;9441;51.420;7.036;2023-04-01T02:40:05;1.33;;;1.23;;
18623;SDS011;9441;51.420;7.036;2023-04-01T02:41:08;2.10;;;1.20;;
18623;SDS011;9441;51.420;7.036;2023-04-01T02:42:09;3.30;;;0.97;;
18623;SDS011;9441;51.420;7.036;2023-04-01T02:43:12;3.87;;;1.40;;
18623;SDS011;9441;51.420;7.036;2023-04-01T02:44:14;3.90;;;1.20;;
18623;SDS011;9441;51.420;7.036;2023-04-01T02:45:17;2.43;;;0.93;;
18623;SDS011;9441;51.420;7.036;2023-04-01T02:46:19;4.40;;;1.37;;
18623;SDS011;9441;51.420;7.036;2023-04-01T02:47:21;2.60;;;1.07;;
18623;SDS011;9441;51.420;7.036;2023-04-01T02:48:22;5.33;;;1.43;;
18623;SDS011;9441;51.420;7.036;2023-04-01T02:49:25;1.80;;;1.00;;
18623;SDS011;9441;51.420;7.036;2023-04-01T02:50:26;5.23;;;1.27;;
18623;SDS011;9441;51.420;7.036;2023-04-01T02:51:29;7.77;;;1.30;;
18623;SDS011;9441;51.420;7.036;2023-04-01T02:52:30;3.43;;;1.20;;
18623;SDS011;9441;51.420;7.036;2023-04-01T02:53:35;2.23;;;1.33;;
18623;SDS011;9441;51.420;7.036;2023-04-01T02:54:38;4.20;;;1.00;;
18623;SDS011;9441;51.420;7.036;2023-04-01T02:55:41;5.37;;;1.10;;
18623;SDS011;9441;51.420;7.036;2023-04-01T02:56:43;2.40;;;1.10;;
18623;SDS011;9441;51.420;7.036;2023-04-01T02:57:45;3.83;;;1.30;;
18623;SDS011;9441;51.420;7.036;2023-04-01T02:58:48;3.67;;;1.23;;
18623;SDS011;9441;51.420;7.036;2023-04-01T02:59:49;1.77;;;1.17;;
18623;SDS011;9441;51.420;7.036;2023-04-01T03:00:51;5.23;;;1.17;;
18623;SDS011;9441;51.420;7.036;2023-04-01T03:01:52;3.47;;;1.03;;
18623;SDS011;9441;51.420;7.036;2023-04-01T03:02:55;3.83;;;1.20;;
18623;SDS011;9441;51.420;7.036;2023-04-01T03:03:56;4.43;;;1.10;;
18623;SDS011;9441;51.420;7.036;2023-04-01T03:04:59;1.53;;;1.00;;
18623;SDS011;9441;51.420;7.036;2023-04-01T03:06:04;3.77;;;1.17;;
18623;SDS011;9441;51.420;7.036;2023-04-01T03:07:06;1.90;;;1.13;;
18623;SDS011;9441;51.420;7.036;2023-04-01T03:08:10;4.20;;;1.30;;
18623;SDS011;9441;51.420;7.036;2023-04-01T03:09:12;4.50;;;1.00;;
18623;SDS011;9441;51.420;7.036;2023-04-01T03:10:15;1.57;;;1.10;;
18623;SDS011;9441;51.420;7.036;2023-04-01T03:11:18;4.00;;;1.00;;
18623;SDS011;9441;51.420;7.036;2023-04-01T03:12:20;3.70;;;1.23;;
18623;SDS011;9441;51.420;7.036;2023-04-01T03:13:24;3.17;;;1.17;;
18623;SDS011;9441;51.420;7.036;2023-04-01T03:14:26;3.10;;;1.40;;
18623;SDS011;9441;51.420;7.036;2023-04-01T03:15:28;4.10;;;1.20;;
18623;SDS011;9441;51.420;7.036;2023-04-01T03:16:30;3.67;;;1.30;;
18623;SDS011;9441;51.420;7.036;2023-04-01T03:17:32;3.40;;;1.33;;
18623;SDS011;9441;51.420;7.036;2023-04-01T03:18:33;2.13;;;1.30;;
18623;SDS011;9441;51.420;7.036;2023-04-01T03:19:36;2.77;;;0.90;;
18623;SDS011;9441;51.420;7.036;2023-04-01T03:20:41;3.37;;;1.20;;
18623;SDS011;9441;51.420;7.036;2023-04-01T03:21:44;3.97;;;1.50;;
18623;SDS011;9441;51.420;7.036;2023-04-01T03:22:45;2.30;;;1.30;;
18623;SDS011;9441;51.420;7.036;2023-04-01T03:23:48;2.33;;;1.13;;
18623;SDS011;9441;51.420;7.036;2023-04-01T03:24:49;1.30;;;1.20;;
18623;SDS011;9441;51.420;7.036;2023-04-01T03:25:53;1.80;;;1.30;;
18623;SDS011;9441;51.420;7.036;2023-04-01T03:26:54;2.57;;;1.50;;
18623;SDS011;9441;51.420;7.036;2023-04-01T03:27:57;1.90;;;1.40;;
18623;SDS011;9441;51.420;7.036;2023-04-01T03:28:59;1.33;;;1.23;;
18623;SDS011;9441;51.420;7.036;2023-04-01T03:30:02;2.73;;;1.70;;
18623;SDS011;9441;51.420;7.036;2023-04-01T03:31:06;4.70;;;1.90;;
18623;SDS011;9441;51.420;7.036;2023-04-01T03:32:15;6.83;;;1.60;;
18623;SDS011;9441;51.420;7.036;2023-04-01T03:33:17;1.70;;;1.60;;
18623;SDS011;9441;51.420;7.036;2023-04-01T03:34:19;4.00;;;1.70;;
18623;SDS011;9441;51.420;7.036;2023-04-01T03:35:21;8.00;;;1.77;;
18623;SDS011;9441;51.420;7.036;2023-04-01T03:36:22;4.93;;;1.70;;
18623;SDS011;9441;51.420;7.036;2023-04-01T03:37:25;5.43;;;1.80;;
18623;SDS011;9441;51.420;7.036;2023-04-01T03:38:26;6.10;;;1.90;;
18623;SDS011;9441;51.420;7.036;2023-04-01T03:39:29;3.80;;;1.67;;
18623;SDS011;9441;51.420;7.036;2023-04-01T03:40:31;3.37;;;1.53;;
18623;SDS011;9441;51.420;7.036;2023-04-01T03:41:38;3.43;;;1.63;;
18623;SDS011;9441;51.420;7.036;2023-04-01T03:42:40;4.30;;;1.80;;
18623;SDS011;9441;51.420;7.036;2023-04-01T03:43:42;5.23;;;1.70;;
18623;SDS011;9441;51.420;7.036;2023-04-01T03:44:44;3.33;;;1.97;;
18623;SDS011;9441;51.420;7.036;2023-04-01T03:45:49;3.83;;;1.80;;
18623;SDS011;9441;51.420;7.036;2023-04-01T03:46:51;3.87;;;1.60;;
18623;SDS011;9441;51.420;7.036;2023-04-01T03:47:53;2.57;;;1.50;;
18623;SDS011;9441;51.420;7.036;2023-04-01T03:48:55;5.90;;;1.63;;
18623;SDS011;9441;51.420;7.036;2023-04-01T03:49:57;2.27;;;1.70;;
18623;SDS011;9441;51.420;7.036;2023-04-01T03:50:59;2.33;;;1.57;;
18623;SDS011;9441;51.420;7.036;2023-04-01T03:52:02;4.77;;;1.80;;
18623;SDS011;9441;51.420;7.036;2023-04-01T03:53:04;4.57;;;1.70;;
18623;SDS011;9441;51.420;7.036;2023-04-01T03:54:07;3.87;;;1.87;;
18623;SDS011;9441;51.420;7.036;2023-04-01T03:55:08;2.53;;;1.37;;
18623;SDS011;9441;51.420;7.036;2023-04-01T03:56:12;2.60;;;2.03;;
18623;SDS011;9441;51.420;7.036;2023-04-01T03:57:16;4.20;;;1.80;;
18623;SDS011;9441;51.420;7.036;2023-04-01T03:58:18;3.50;;;1.80;;
18623;SDS011;9441;51.420;7.036;2023-04-01T03:59:20;3.90;;;1.80;;
18623;SDS011;9441;51.420;7.036;2023-04-01T04:00:22;2.90;;;1.80;;
18623;SDS011;9441;51.420;7.036;2023-04-01T04:01:28;3.27;;;1.80;;
18623;SDS011;9441;51.420;7.036;2023-04-01T04:02:31;4.20;;;1.70;;
18623;SDS011;9441;51.420;7.036;2023-04-01T04:03:32;4.53;;;1.97;;
18623;SDS011;9441;51.420;7.036;2023-04-01T04:04:35;3.90;;;1.97;;
18623;SDS011;9441;51.420;7.036;2023-04-01T04:05:36;2.33;;;1.93;;
18623;SDS011;9441;51.420;7.036;2023-04-01T04:06:39;3.23;;;1.90;;
18623;SDS011;9441;51.420;7.036;2023-04-01T04:07:40;2.20;;;2.00;;
18623;SDS011;9441;51.420;7.036;2023-04-01T04:08:44;3.17;;;1.83;;
18623;SDS011;9441;51.420;7.036;2023-04-01T04:09:45;5.10;;;2.10;;
18623;SDS011;9441;51.420;7.036;2023-04-01T04:10:51;3.10;;;1.93;;
18623;SDS011;9441;51.420;7.036;2023-04-01T04:11:55;4.03;;;2.10;;
18623;SDS011;9441;51.420;7.036;2023-04-01T04:12:58;3.13;;;2.03;;
18623;SDS011;9441;51.420;7.036;2023-04-01T04:14:03;3.00;;;1.90;;
18623;SDS011;9441;51.420;7.036;2023-04-01T04:15:05;3.53;;;2.00;;
18623;SDS011;9441;51.420;7.036;2023-04-01T04:16:07;2.70;;;2.00;;
18623;SDS011;9441;51.420;7.036;2023-04-01T04:17:11;3.90;;;2.10;;
18623;SDS011;9441;51.420;7.036;2023-04-01T04:18:16;4.47;;;1.87;;
18623;SDS011;9441;51.420;7.036;2023-04-01T04:19:19;5.43;;;2.10;;
18623;SDS011;9441;51.420;7.036;2023-04-01T04:20:20;2.27;;;2.07;;
18623;SDS011;9441;51.420;7.036;2023-04-01T04:21:23;3.20;;;2.20;;
18623;SDS011;9441;51.420;7.036;2023-04-01T04:22:24;4.07;;;2.40;;
18623;SDS011;9441;51.420;7.036;2023-04-01T04:23:26;4.20;;;2.20;;
18623;SDS011;9441;51.420;7.036;2023-04-01T04:24:30;2.37;;;2.00;;
18623;SDS011;9441;51.420;7.036;2023-04-01T04:25:38;5.63;;;2.20;;
18623;SDS011;9441;51.420;7.036;2023-04-01T04:26:39;4.77;;;2.40;;
18623;SDS011;9441;51.420;7.036;2023-04-01T04:27:41;6.20;;;2.10;;
18623;SDS011;9441;51.420;7.036;2023-04-01T04:28:47;2.47;;;1.97;;
18623;SDS011;9441;51.420;7.036;2023-04-01T04:29:50;3.37;;;2.27;;
18623;SDS011;9441;51.420;7.036;2023-04-01T04:30:52;3.57;;;1.83;;
18623;SDS011;9441;51.420;7.036;2023-04-01T04:31:54;4.50;;;2.30;;
18623;SDS011;9441;51.420;7.036;2023-04-01T04:32:56;3.77;;;2.27;;
18623;SDS011;9441;51.420;7.036;2023-04-01T04:33:58;6.33;;;2.30;;
18623;SDS011;9441;51.420;7.036;2023-04-01T04:35:00;2.83;;;2.20;;
18623;SDS011;9441;51.420;7.036;2023-04-01T04:36:03;3.33;;;2.20;;
18623;SDS011;9441;51.420;7.036;2023-04-01T04:37:04;4.40;;;2.23;;
18623;SDS011;9441;51.420;7.036;2023-04-01T04:38:09;5.50;;;2.13;;
18623;SDS011;9441;51.420;7.036;2023-04-01T04:39:11;5.87;;;2.37;;
18623;SDS011;9441;51.420;7.036;2023-04-01T04:40:15;4.17;;;2.40;;
18623;SDS011;9441;51.420;7.036;2023-04-01T04:41:17;4.77;;;2.27;;
18623;SDS011;9441;51.420;7.036;2023-04-01T04:42:23;5.00;;;2.00;;
18623;SDS011;9441;51.420;7.036;2023-04-01T04:43:29;2.53;;;2.07;;
18623;SDS011;9441;51.420;7.036;2023-04-01T04:44:32;2.37;;;1.97;;
18623;SDS011;9441;51.420;7.036;2023-04-01T04:45:34;4.03;;;2.17;;
18623;SDS011;9441;51.420;7.036;2023-04-01T04:46:37;4.87;;;2.30;;
18623;SDS011;9441;51.420;7.036;2023-04-01T04:47:48;2.30;;;2.07;;
18623;SDS011;9441;51.420;7.036;2023-04-01T04:48:51;3.57;;;2.10;;
18623;SDS011;9441;51.420;7.036;2023-04-01T04:49:52;2.10;;;1.77;;
18623;SDS011;9441;51.420;7.036;2023-04-01T04:50:55;2.77;;;2.20;;
18623;SDS011;9441;51.420;7.036;2023-04-01T04:51:57;4.67;;;2.80;;
18623;SDS011;9441;51.420;7.036;2023-04-01T04:53:01;3.40;;;2.20;;
18623;SDS011;9441;51.420;7.036;2023-04-01T04:54:05;3.30;;;2.20;;
18623;SDS011;9441;51.420;7.036;2023-04-01T04:55:28;2.20;;;1.93;;
18623;SDS011;9441;51.420;7.036;2023-04-01T04:57:05;4.63;;;1.90;;
18623;SDS011;9441;51.420;7.036;2023-04-01T04:58:15;4.57;;;1.93;;
18623;SDS011;9441;51.420;7.036;2023-04-01T04:59:17;6.33;;;2.23;;
18623;SDS011;9441;51.420;7.036;2023-04-01T05:00:34;4.70;;;2.23;;
18623;SDS011;9441;51.420;7.036;2023-04-01T05:01:40;5.20;;;2.27;;
18623;SDS011;9441;51.420;7.036;2023-04-01T05:02:42;4.30;;;2.30;;
18623;SDS011;9441;51.420;7.036;2023-04-01T05:03:44;5.50;;;2.27;;
18623;SDS011;9441;51.420;7.036;2023-04-01T05:04:46;3.30;;;2.10;;
18623;SDS011;9441;51.420;7.036;2023-04-01T05:05:48;6.10;;;2.37;;
18623;SDS011;9441;51.420;7.036;2023-04-01T05:06:51;3.93;;;2.10;;
18623;SDS011;9441;51.420;7.036;2023-04-01T05:07:52;4.97;;;2.60;;
18623;SDS011;9441;51.420;7.036;2023-04-01T05:08:55;3.77;;;2.33;;
18623;SDS011;9441;51.420;7.036;2023-04-01T05:09:57;3.30;;;2.10;;
18623;SDS011;9441;51.420;7.036;2023-04-01T05:11:01;5.43;;;2.43;;
18623;SDS011;9441;51.420;7.036;2023-04-01T05:12:06;3.13;;;2.40;;
18623;SDS011;9441;51.420;7.036;2023-04-01T05:13:26;6.13;;;2.53;;
18623;SDS011;9441;51.420;7.036;2023-04-01T05:14:29;2.97;;;2.20;;
18623;SDS011;9441;51.420;7.036;2023-04-01T05:15:42;4.13;;;2.10;;
18623;SDS011;9441;51.420;7.036;2023-04-01T05:16:44;4.80;;;2.80;;
18623;SDS011;9441;51.420;7.036;2023-04-01T05:17:46;2.47;;;2.27;;
18623;SDS011;9441;51.420;7.036;2023-04-01T05:18:48;6.93;;;2.77;;
18623;SDS011;9441;51.420;7.036;2023-04-01T05:19:50;7.77;;;2.57;;
18623;SDS011;9441;51.420;7.036;2023-04-01T05:20:53;4.73;;;2.37;;
18623;SDS011;9441;51.420;7.036;2023-04-01T05:21:55;2.90;;;2.50;;
18623;SDS011;9441;51.420;7.036;2023-04-01T05:22:57;4.33;;;2.37;;
18623;SDS011;9441;51.420;7.036;2023-04-01T05:23:59;3.97;;;2.50;;
18623;SDS011;9441;51.420;7.036;2023-04-01T05:25:02;3.27;;;2.80;;
18623;SDS011;9441;51.420;7.036;2023-04-01T05:26:04;4.63;;;2.60;;
18623;SDS011;9441;51.420;7.036;2023-04-01T05:27:07;4.77;;;2.70;;
18623;SDS011;9441;51.420;7.036;2023-04-01T05:28:12;4.57;;;2.50;;
18623;SDS011;9441;51.420;7.036;2023-04-01T05:29:16;4.77;;;2.60;;
18623;SDS011;9441;51.420;7.036;2023-04-01T05:30:19;3.00;;;2.60;;
18623;SDS011;9441;51.420;7.036;2023-04-01T05:31:36;5.30;;;2.60;;
18623;SDS011;9441;51.420;7.036;2023-04-01T05:32:39;4.57;;;2.60;;
18623;SDS011;9441;51.420;7.036;2023-04-01T05:33:40;4.33;;;2.80;;
18623;SDS011;9441;51.420;7.036;2023-04-01T05:34:43;3.67;;;2.73;;
18623;SDS011;9441;51.420;7.036;2023-04-01T05:35:44;6.37;;;2.67;;
18623;SDS011;9441;51.420;7.036;2023-04-01T05:36:47;3.47;;;2.73;;
18623;SDS011;9441;51.420;7.036;2023-04-01T05:37:49;5.27;;;2.63;;
18623;SDS011;9441;51.420;7.036;2023-04-01T05:38:54;4.17;;;2.70;;
18623;SDS011;9441;51.420;7.036;2023-04-01T05:39:56;5.20;;;2.90;;
18623;SDS011;9441;51.420;7.036;2023-04-01T05:41:00;5.67;;;3.13;;
18623;SDS011;9441;51.420;7.036;2023-04-01T05:42:02;4.90;;;2.70;;
18623;SDS011;9441;51.420;7.036;2023-04-01T05:43:04;7.47;;;3.20;;
18623;SDS011;9441;51.420;7.036;2023-04-01T05:44:05;4.80;;;2.70;;
18623;SDS011;9441;51.420;7.036;2023-04-01T05:45:13;3.90;;;2.40;;
18623;SDS011;9441;51.420;7.036;2023-04-01T05:46:31;4.70;;;2.60;;
18623;SDS011;9441;51.420;7.036;2023-04-01T05:47:43;5.87;;;3.33;;
18623;SDS011;9441;51.420;7.036;2023-04-01T05:48:45;3.53;;;2.73;;
18623;SDS011;9441;51.420;7.036;2023-04-01T05:49:47;4.53;;;2.80;;
18623;SDS011;9441;51.420;7.036;2023-04-01T05:50:49;5.47;;;2.93;;
18623;SDS011;9441;51.420;7.036;2023-04-01T05:51:51;5.00;;;3.10;;
18623;SDS011;9441;51.420;7.036;2023-04-01T05:52:52;3.70;;;2.70;;
18623;SDS011;9441;51.420;7.036;2023-04-01T05:53:55;4.37;;;3.17;;
18623;SDS011;9441;51.420;7.036;2023-04-01T05:54:57;5.00;;;2.90;;
18623;SDS011;9441;51.420;7.036;2023-04-01T05:56:03;4.27;;;3.10;;
18623;SDS011;9441;51.420;7.036;2023-04-01T05:57:09;6.93;;;2.97;;
18623;SDS011;9441;51.420;7.036;2023-04-01T05:58:12;7.10;;;3.00;;
18623;SDS011;9441;51.420;7.036;2023-04-01T05:59:16;4.80;;;2.83;;
18623;SDS011;9441;51.420;7.036;2023-04-01T06:00:18;5.67;;;3.03;;
18623;SDS011;9441;51.420;7.036;2023-04-01T06:01:20;4.67;;;3.43;;
18623;SDS011;9441;51.420;7.036;2023-04-01T06:02:22;5.13;;;2.90;;
18623;SDS011;9441;51.420;7.036;2023-04-01T06:03:25;4.00;;;3.03;;
18623;SDS011;9441;51.420;7.036;2023-04-01T06:04:28;4.63;;;2.63;;
18623;SDS011;9441;51.420;7.036;2023-04-01T06:05:37;5.27;;;3.33;;
18623;SDS011;9441;51.420;7.036;2023-04-01T06:06:40;4.13;;;2.80;;
18623;SDS011;9441;51.420;7.036;2023-04-01T06:07:44;7.43;;;2.97;;
18623;SDS011;9441;51.420;7.036;2023-04-01T06:08:46;4.10;;;2.90;;
18623;SDS011;9441;51.420;7.036;2023-04-01T06:09:48;4.83;;;3.10;;
18623;SDS011;9441;51.420;7.036;2023-04-01T06:10:55;3.70;;;3.00;;
18623;SDS011;9441;51.420;7.036;2023-04-01T06:12:06;4.83;;;3.13;;
18623;SDS011;9441;51.420;7.036;2023-04-01T06:13:23;4.83;;;2.93;;
18623;SDS011;9441;51.420;7.036;2023-04-01T06:14:32;3.90;;;2.83;;
18623;SDS011;9441;51.420;7.036;2023-04-01T06:15:39;4.33;;;2.90;;
18623;SDS011;9441;51.420;7.036;2023-04-01T06:16:50;5.83;;;3.50;;
18623;SDS011;9441;51.420;7.036;2023-04-01T06:18:00;6.13;;;3.20;;
18623;SDS011;9441;51.420;7.036;2023-04-01T06:20:28;7.57;;;3.03;;
18623;SDS011;9441;51.420;7.036;2023-04-01T06:21:37;6.40;;;3.40;;
18623;SDS011;9441;51.420;7.036;2023-04-01T06:22:50;6.87;;;3.40;;
18623;SDS011;9441;51.420;7.036;2023-04-01T06:23:56;5.33;;;3.43;;
18623;SDS011;9441;51.420;7.036;2023-04-01T06:25:04;5.80;;;3.37;;
18623;SDS011;9441;51.420;7.036;2023-04-01T06:26:12;4.53;;;3.13;;
18623;SDS011;9441;51.420;7.036;2023-04-01T06:27:19;5.07;;;3.47;;
18623;SDS011;9441;51.420;7.036;2023-04-01T06:28:38;7.77;;;3.60;;
18623;SDS011;9441;51.420;7.036;2023-04-01T06:29:47;4.90;;;3.30;;
18623;SDS011;9441;51.420;7.036;2023-04-01T06:30:52;4.47;;;3.20;;
18623;SDS011;9441;51.420;7.036;2023-04-01T06:33:31;5.20;;;3.63;;
18623;SDS011;9441;51.420;7.036;2023-04-01T06:37:23;4.63;;;3.40;;